sensor_id;sensor_type;location;lat;lon;timestamp;P1;durP1;ratioP1;P2;durP2;ratioP2
13985;SDS011;7067;51.832;8.296;2023-04-25T00:00:20;29.83;;;7.00;;
13985;SDS011;7067;51.832;8.296;2023-04-25T00:02:46;16.67;;;6.30;;
13985;SDS011;7067;51.832;8.296;2023-04-25T00:05:11;18.95;;;6.13;;
13985;SDS011;7067;51.832;8.296;2023-04-25T00:07:37;19.20;;;6.30;;
13985;SDS011;7067;51.832;8.296;2023-04-25T00:10:03;14.13;;;6.63;;
13985;SDS011;7067;51.832;8.296;2023-04-25T00:12:28;21.08;;;7.15;;
13985;SDS011;7067;51.832;8.296;2023-04-25T00:14:54;17.33;;;6.93;;
13985;SDS011;7067;51.832;8.296;2023-04-25T00:17:22;19.13;;;6.68;;
13985;SDS011;7067;51.832;8.296;2023-04-25T00:19:49;12.10;;;6.10;;
13985;SDS011;7067;51.832;8.296;2023-04-25T00:22:15;20.33;;;6.53;;
13985;SDS011;7067;51.832;8.296;2023-04-25T00:24:40;14.10;;;6.47;;
13985;SDS011;7067;51.832;8.296;2023-04-25T00:27:06;16.83;;;6.63;;
13985;SDS011;7067;51.832;8.296;2023-04-25T00:29:31;18.58;;;7.15;;
13985;SDS011;7067;51.832;8.296;2023-04-25T00:31:56;14.80;;;6.50;;
13985;SDS011;7067;51.832;8.296;2023-04-25T00:34:22;14.45;;;5.78;;
13985;SDS011;7067;51.832;8.296;2023-04-25T00:36:47;18.75;;;6.65;;
13985;SDS011;7067;51.832;8.296;2023-04-25T00:39:12;15.15;;;6.53;;
13985;SDS011;7067;51.832;8.296;2023-04-25T00:41:38;13.48;;;6.57;;
13985;SDS011;7067;51.832;8.296;2023-04-25T00:44:03;15.93;;;6.70;;
13985;SDS011;7067;51.832;8.296;2023-04-25T00:46:29;15.60;;;7.60;;
13985;SDS011;7067;51.832;8.296;2023-04-25T00:48:56;15.85;;;6.97;;
13985;SDS011;7067;51.832;8.296;2023-04-25T00:51:21;18.13;;;7.60;;
13985;SDS011;7067;51.832;8.296;2023-04-25T00:53:49;20.58;;;8.40;;
13985;SDS011;7067;51.832;8.296;2023-04-25T00:56:15;17.70;;;7.93;;
13985;SDS011;7067;51.832;8.296;2023-04-25T00:58:41;18.25;;;8.35;;
13985;SDS011;7067;51.832;8.296;2023-04-25T01:01:07;18.38;;;8.40;;
13985;SDS011;7067;51.832;8.296;2023-04-25T01:03:33;18.13;;;9.27;;
13985;SDS011;7067;51.832;8.296;2023-04-25T01:06:00;19.80;;;8.95;;
13985;SDS011;7067;51.832;8.296;2023-04-25T01:08:27;18.98;;;9.43;;
13985;SDS011;7067;51.832;8.296;2023-04-25T01:10:52;13.55;;;8.40;;
13985;SDS011;7067;51.832;8.296;2023-04-25T01:13:17;19.35;;;9.68;;
13985;SDS011;7067;51.832;8.296;2023-04-25T01:15:43;17.80;;;9.20;;
13985;SDS011;7067;51.832;8.296;2023-04-25T01:18:08;24.45;;;9.32;;
13985;SDS011;7067;51.832;8.296;2023-04-25T01:20:34;14.02;;;8.90;;
13985;SDS011;7067;51.832;8.296;2023-04-25T01:23:00;20.30;;;9.93;;
13985;SDS011;7067;51.832;8.296;2023-04-25T01:25:27;17.05;;;9.32;;
13985;SDS011;7067;51.832;8.296;2023-04-25T01:27:52;13.20;;;8.75;;
13985;SDS011;7067;51.832;8.296;2023-04-25T01:30:18;17.23;;;10.30;;
13985;SDS011;7067;51.832;8.296;2023-04-25T01:32:43;17.50;;;9.73;;
13985;SDS011;7067;51.832;8.296;2023-04-25T01:35:09;19.30;;;9.88;;
13985;SDS011;7067;51.832;8.296;2023-04-25T01:37:37;17.92;;;9.02;;
13985;SDS011;7067;51.832;8.296;2023-04-25T01:40:02;19.75;;;9.60;;
13985;SDS011;7067;51.832;8.296;2023-04-25T01:42:30;23.38;;;10.10;;
13985;SDS011;7067;51.832;8.296;2023-04-25T01:44:56;17.98;;;9.70;;
13985;SDS011;7067;51.832;8.296;2023-04-25T01:47:21;18.27;;;10.85;;
13985;SDS011;7067;51.832;8.296;2023-04-25T01:49:47;18.33;;;11.10;;
13985;SDS011;7067;51.832;8.296;2023-04-25T01:52:12;18.85;;;10.30;;
13985;SDS011;7067;51.832;8.296;2023-04-25T01:54:37;24.92;;;11.90;;
13985;SDS011;7067;51.832;8.296;2023-04-25T01:57:03;22.92;;;11.55;;
13985;SDS011;7067;51.832;8.296;2023-04-25T01:59:28;16.20;;;10.77;;
13985;SDS011;7067;51.832;8.296;2023-04-25T02:01:54;15.98;;;11.55;;
13985;SDS011;7067;51.832;8.296;2023-04-25T02:04:19;17.80;;;11.65;;
13985;SDS011;7067;51.832;8.296;2023-04-25T02:06:44;13.65;;;10.32;;
13985;SDS011;7067;51.832;8.296;2023-04-25T02:09:10;21.80;;;11.75;;
13985;SDS011;7067;51.832;8.296;2023-04-25T02:11:35;17.45;;;12.18;;
13985;SDS011;7067;51.832;8.296;2023-04-25T02:14:00;18.65;;;13.02;;
13985;SDS011;7067;51.832;8.296;2023-04-25T02:16:26;23.90;;;12.65;;
13985;SDS011;7067;51.832;8.296;2023-04-25T02:18:51;24.63;;;12.75;;
13985;SDS011;7067;51.832;8.296;2023-04-25T02:21:17;17.38;;;11.98;;
13985;SDS011;7067;51.832;8.296;2023-04-25T02:23:43;27.48;;;12.15;;
13985;SDS011;7067;51.832;8.296;2023-04-25T02:26:10;23.25;;;12.88;;
13985;SDS011;7067;51.832;8.296;2023-04-25T02:28:38;19.10;;;12.60;;
13985;SDS011;7067;51.832;8.296;2023-04-25T02:31:03;21.13;;;12.07;;
13985;SDS011;7067;51.832;8.296;2023-04-25T02:33:29;21.45;;;13.02;;
13985;SDS011;7067;51.832;8.296;2023-04-25T02:35:54;19.10;;;13.27;;
13985;SDS011;7067;51.832;8.296;2023-04-25T02:38:20;22.77;;;13.63;;
13985;SDS011;7067;51.832;8.296;2023-04-25T02:40:45;18.70;;;13.60;;
13985;SDS011;7067;51.832;8.296;2023-04-25T02:43:10;20.42;;;13.80;;
13985;SDS011;7067;51.832;8.296;2023-04-25T02:45:36;22.35;;;13.55;;
13985;SDS011;7067;51.832;8.296;2023-04-25T02:48:03;19.95;;;13.32;;
13985;SDS011;7067;51.832;8.296;2023-04-25T02:50:28;22.20;;;14.07;;
13985;SDS011;7067;51.832;8.296;2023-04-25T02:52:53;23.58;;;13.60;;
13985;SDS011;7067;51.832;8.296;2023-04-25T02:55:19;21.63;;;13.27;;
13985;SDS011;7067;51.832;8.296;2023-04-25T02:57:45;22.33;;;11.57;;
13985;SDS011;7067;51.832;8.296;2023-04-25T03:00:11;21.42;;;12.55;;
13985;SDS011;7067;51.832;8.296;2023-04-25T03:02:36;20.77;;;13.00;;
13985;SDS011;7067;51.832;8.296;2023-04-25T03:05:02;25.52;;;12.45;;
13985;SDS011;7067;51.832;8.296;2023-04-25T03:07:28;19.55;;;11.80;;
13985;SDS011;7067;51.832;8.296;2023-04-25T03:09:53;21.38;;;11.70;;
13985;SDS011;7067;51.832;8.296;2023-04-25T03:12:18;23.77;;;12.38;;
13985;SDS011;7067;51.832;8.296;2023-04-25T03:14:44;25.23;;;12.40;;
13985;SDS011;7067;51.832;8.296;2023-04-25T03:17:09;19.55;;;12.27;;
13985;SDS011;7067;51.832;8.296;2023-04-25T03:19:35;17.25;;;11.35;;
13985;SDS011;7067;51.832;8.296;2023-04-25T03:22:00;25.30;;;10.73;;
13985;SDS011;7067;51.832;8.296;2023-04-25T03:24:26;20.23;;;10.57;;
13985;SDS011;7067;51.832;8.296;2023-04-25T03:26:52;22.98;;;11.45;;
13985;SDS011;7067;51.832;8.296;2023-04-25T03:29:17;20.75;;;11.15;;
13985;SDS011;7067;51.832;8.296;2023-04-25T03:31:42;20.80;;;10.57;;
13985;SDS011;7067;51.832;8.296;2023-04-25T03:34:08;28.42;;;11.20;;
13985;SDS011;7067;51.832;8.296;2023-04-25T03:36:33;19.92;;;9.25;;
13985;SDS011;7067;51.832;8.296;2023-04-25T03:38:58;18.42;;;9.70;;
13985;SDS011;7067;51.832;8.296;2023-04-25T03:41:24;19.95;;;10.77;;
13985;SDS011;7067;51.832;8.296;2023-04-25T03:43:50;21.58;;;9.68;;
13985;SDS011;7067;51.832;8.296;2023-04-25T03:46:15;20.02;;;8.38;;
13985;SDS011;7067;51.832;8.296;2023-04-25T03:48:40;19.50;;;9.63;;
13985;SDS011;7067;51.832;8.296;2023-04-25T03:51:06;20.75;;;9.52;;
13985;SDS011;7067;51.832;8.296;2023-04-25T03:53:31;22.33;;;9.13;;
13985;SDS011;7067;51.832;8.296;2023-04-25T03:55:56;16.27;;;8.43;;
13985;SDS011;7067;51.832;8.296;2023-04-25T03:58:22;22.77;;;8.45;;
13985;SDS011;7067;51.832;8.296;2023-04-25T04:00:49;21.15;;;8.75;;
13985;SDS011;7067;51.832;8.296;2023-04-25T04:03:14;21.63;;;8.02;;
13985;SDS011;7067;51.832;8.296;2023-04-25T04:05:40;18.40;;;7.53;;
13985;SDS011;7067;51.832;8.296;2023-04-25T04:08:05;26.02;;;7.65;;
13985;SDS011;7067;51.832;8.296;2023-04-25T04:10:31;19.98;;;7.22;;
13985;SDS011;7067;51.832;8.296;2023-04-25T04:12:56;21.52;;;7.25;;
13985;SDS011;7067;51.832;8.296;2023-04-25T04:15:22;25.63;;;6.95;;
13985;SDS011;7067;51.832;8.296;2023-04-25T04:17:48;18.30;;;7.05;;
13985;SDS011;7067;51.832;8.296;2023-04-25T04:20:13;18.58;;;6.60;;
13985;SDS011;7067;51.832;8.296;2023-04-25T04:22:38;25.52;;;7.20;;
13985;SDS011;7067;51.832;8.296;2023-04-25T04:25:04;22.85;;;6.40;;
13985;SDS011;7067;51.832;8.296;2023-04-25T04:27:30;23.15;;;6.53;;
13985;SDS011;7067;51.832;8.296;2023-04-25T04:29:56;24.30;;;5.82;;
13985;SDS011;7067;51.832;8.296;2023-04-25T04:32:22;26.35;;;6.28;;
13985;SDS011;7067;51.832;8.296;2023-04-25T04:34:48;20.77;;;6.68;;
13985;SDS011;7067;51.832;8.296;2023-04-25T04:37:14;22.83;;;6.47;;
13985;SDS011;7067;51.832;8.296;2023-04-25T04:39:39;26.38;;;6.43;;
13985;SDS011;7067;51.832;8.296;2023-04-25T04:42:05;19.83;;;6.22;;
13985;SDS011;7067;51.832;8.296;2023-04-25T04:44:31;29.08;;;6.90;;
13985;SDS011;7067;51.832;8.296;2023-04-25T04:46:57;26.25;;;6.28;;
13985;SDS011;7067;51.832;8.296;2023-04-25T04:49:23;25.42;;;6.38;;
13985;SDS011;7067;51.832;8.296;2023-04-25T04:51:48;25.60;;;7.50;;
13985;SDS011;7067;51.832;8.296;2023-04-25T04:54:14;29.58;;;6.03;;
13985;SDS011;7067;51.832;8.296;2023-04-25T04:56:40;24.73;;;6.47;;
13985;SDS011;7067;51.832;8.296;2023-04-25T04:59:06;20.55;;;5.93;;
13985;SDS011;7067;51.832;8.296;2023-04-25T05:01:32;19.20;;;6.03;;
13985;SDS011;7067;51.832;8.296;2023-04-25T05:04:00;28.35;;;5.97;;
13985;SDS011;7067;51.832;8.296;2023-04-25T05:06:26;29.10;;;6.45;;
13985;SDS011;7067;51.832;8.296;2023-04-25T05:08:52;36.95;;;7.72;;
13985;SDS011;7067;51.832;8.296;2023-04-25T05:11:18;23.65;;;6.70;;
13985;SDS011;7067;51.832;8.296;2023-04-25T05:13:44;23.25;;;7.13;;
13985;SDS011;7067;51.832;8.296;2023-04-25T05:16:10;30.55;;;7.05;;
13985;SDS011;7067;51.832;8.296;2023-04-25T05:18:36;30.20;;;7.25;;
13985;SDS011;7067;51.832;8.296;2023-04-25T05:21:01;30.00;;;7.18;;
13985;SDS011;7067;51.832;8.296;2023-04-25T05:23:26;27.80;;;6.43;;
13985;SDS011;7067;51.832;8.296;2023-04-25T05:25:52;22.23;;;6.07;;
13985;SDS011;7067;51.832;8.296;2023-04-25T05:28:18;23.08;;;6.32;;
13985;SDS011;7067;51.832;8.296;2023-04-25T05:30:43;25.73;;;6.15;;
13985;SDS011;7067;51.832;8.296;2023-04-25T05:33:09;20.50;;;5.93;;
13985;SDS011;7067;51.832;8.296;2023-04-25T05:35:34;30.35;;;6.45;;
13985;SDS011;7067;51.832;8.296;2023-04-25T05:37:59;25.98;;;6.50;;
13985;SDS011;7067;51.832;8.296;2023-04-25T05:40:25;21.88;;;6.18;;
13985;SDS011;7067;51.832;8.296;2023-04-25T05:42:50;24.20;;;6.65;;
13985;SDS011;7067;51.832;8.296;2023-04-25T05:45:15;24.17;;;6.97;;
13985;SDS011;7067;51.832;8.296;2023-04-25T05:47:42;19.77;;;6.00;;
13985;SDS011;7067;51.832;8.296;2023-04-25T05:50:08;22.98;;;6.80;;
13985;SDS011;7067;51.832;8.296;2023-04-25T05:52:33;23.85;;;6.97;;
13985;SDS011;7067;51.832;8.296;2023-04-25T05:54:58;24.77;;;5.65;;
13985;SDS011;7067;51.832;8.296;2023-04-25T05:57:25;25.88;;;6.35;;
13985;SDS011;7067;51.832;8.296;2023-04-25T05:59:51;23.42;;;6.57;;
13985;SDS011;7067;51.832;8.296;2023-04-25T06:02:17;18.35;;;5.30;;
13985;SDS011;7067;51.832;8.296;2023-04-25T06:04:43;30.30;;;6.00;;
13985;SDS011;7067;51.832;8.296;2023-04-25T06:07:08;20.33;;;5.72;;
13985;SDS011;7067;51.832;8.296;2023-04-25T06:09:34;25.88;;;6.05;;
13985;SDS011;7067;51.832;8.296;2023-04-25T06:11:59;22.00;;;5.30;;
13985;SDS011;7067;51.832;8.296;2023-04-25T06:14:26;21.73;;;5.40;;
13985;SDS011;7067;51.832;8.296;2023-04-25T06:16:51;22.75;;;5.70;;
13985;SDS011;7067;51.832;8.296;2023-04-25T06:19:16;20.90;;;6.03;;
13985;SDS011;7067;51.832;8.296;2023-04-25T06:21:42;23.67;;;5.80;;
13985;SDS011;7067;51.832;8.296;2023-04-25T06:24:08;20.20;;;6.18;;
13985;SDS011;7067;51.832;8.296;2023-04-25T06:26:33;22.00;;;5.75;;
13985;SDS011;7067;51.832;8.296;2023-04-25T06:28:59;23.08;;;5.63;;
13985;SDS011;7067;51.832;8.296;2023-04-25T06:31:24;18.42;;;4.72;;
13985;SDS011;7067;51.832;8.296;2023-04-25T06:33:50;21.75;;;6.20;;
13985;SDS011;7067;51.832;8.296;2023-04-25T06:36:15;19.38;;;5.57;;
13985;SDS011;7067;51.832;8.296;2023-04-25T06:38:40;23.20;;;5.47;;
13985;SDS011;7067;51.832;8.296;2023-04-25T06:41:06;19.95;;;4.65;;
13985;SDS011;7067;51.832;8.296;2023-04-25T06:43:31;29.00;;;5.80;;
13985;SDS011;7067;51.832;8.296;2023-04-25T06:45:58;17.23;;;5.03;;
13985;SDS011;7067;51.832;8.296;2023-04-25T06:48:25;24.15;;;5.13;;
13985;SDS011;7067;51.832;8.296;2023-04-25T06:50:51;19.13;;;4.93;;
13985;SDS011;7067;51.832;8.296;2023-04-25T06:53:16;22.60;;;5.32;;
13985;SDS011;7067;51.832;8.296;2023-04-25T06:55:42;27.50;;;4.88;;
13985;SDS011;7067;51.832;8.296;2023-04-25T06:58:07;18.20;;;4.18;;
13985;SDS011;7067;51.832;8.296;2023-04-25T07:00:33;19.88;;;4.78;;
13985;SDS011;7067;51.832;8.296;2023-04-25T07:02:58;18.02;;;5.07;;
13985;SDS011;7067;51.832;8.296;2023-04-25T07:05:23;18.75;;;4.43;;
13985;SDS011;7067;51.832;8.296;2023-04-25T07:07:49;25.73;;;6.07;;
13985;SDS011;7067;51.832;8.296;2023-04-25T07:10:14;22.10;;;4.47;;
13985;SDS011;7067;51.832;8.296;2023-04-25T07:12:40;20.30;;;4.35;;
13985;SDS011;7067;51.832;8.296;2023-04-25T07:15:05;23.30;;;4.47;;
13985;SDS011;7067;51.832;8.296;2023-04-25T07:17:33;19.38;;;4.78;;
13985;SDS011;7067;51.832;8.296;2023-04-25T07:19:58;15.40;;;4.15;;
13985;SDS011;7067;51.832;8.296;2023-04-25T07:22:24;11.90;;;3.88;;
13985;SDS011;7067;51.832;8.296;2023-04-25T07:24:51;22.20;;;4.82;;
13985;SDS011;7067;51.832;8.296;2023-04-25T07:27:18;16.77;;;4.63;;
13985;SDS011;7067;51.832;8.296;2023-04-25T07:29:43;20.02;;;4.13;;
13985;SDS011;7067;51.832;8.296;2023-04-25T07:32:09;17.25;;;4.25;;
13985;SDS011;7067;51.832;8.296;2023-04-25T07:34:37;17.27;;;3.95;;
13985;SDS011;7067;51.832;8.296;2023-04-25T07:37:03;12.63;;;3.65;;
13985;SDS011;7067;51.832;8.296;2023-04-25T07:39:29;13.52;;;4.13;;
13985;SDS011;7067;51.832;8.296;2023-04-25T07:41:54;17.60;;;3.97;;
13985;SDS011;7067;51.832;8.296;2023-04-25T07:44:20;17.90;;;4.18;;
13985;SDS011;7067;51.832;8.296;2023-04-25T07:46:45;17.13;;;4.28;;
13985;SDS011;7067;51.832;8.296;2023-04-25T07:49:10;21.75;;;4.40;;
13985;SDS011;7067;51.832;8.296;2023-04-25T07:51:36;13.35;;;3.65;;
13985;SDS011;7067;51.832;8.296;2023-04-25T07:54:01;16.40;;;3.70;;
13985;SDS011;7067;51.832;8.296;2023-04-25T07:56:27;13.00;;;3.70;;
13985;SDS011;7067;51.832;8.296;2023-04-25T07:58:52;16.38;;;3.95;;
13985;SDS011;7067;51.832;8.296;2023-04-25T08:01:18;14.13;;;3.85;;
13985;SDS011;7067;51.832;8.296;2023-04-25T08:03:45;14.15;;;3.80;;
13985;SDS011;7067;51.832;8.296;2023-04-25T08:06:11;10.05;;;3.05;;
13985;SDS011;7067;51.832;8.296;2023-04-25T08:08:36;14.15;;;2.95;;
13985;SDS011;7067;51.832;8.296;2023-04-25T08:11:01;14.25;;;3.58;;
13985;SDS011;7067;51.832;8.296;2023-04-25T08:13:27;8.50;;;3.40;;
13985;SDS011;7067;51.832;8.296;2023-04-25T08:15:52;13.32;;;3.40;;
13985;SDS011;7067;51.832;8.296;2023-04-25T08:18:17;16.20;;;3.58;;
13985;SDS011;7067;51.832;8.296;2023-04-25T08:20:43;12.18;;;2.97;;
13985;SDS011;7067;51.832;8.296;2023-04-25T08:23:08;9.10;;;2.95;;
13985;SDS011;7067;51.832;8.296;2023-04-25T08:25:35;11.30;;;3.15;;
13985;SDS011;7067;51.832;8.296;2023-04-25T08:28:00;14.95;;;3.72;;
13985;SDS011;7067;51.832;8.296;2023-04-25T08:30:27;11.23;;;3.38;;
13985;SDS011;7067;51.832;8.296;2023-04-25T08:32:53;11.45;;;2.70;;
13985;SDS011;7067;51.832;8.296;2023-04-25T08:35:18;13.57;;;3.30;;
13985;SDS011;7067;51.832;8.296;2023-04-25T08:37:45;9.50;;;2.50;;
13985;SDS011;7067;51.832;8.296;2023-04-25T08:40:14;11.15;;;2.97;;
13985;SDS011;7067;51.832;8.296;2023-04-25T08:42:41;17.85;;;3.25;;
13985;SDS011;7067;51.832;8.296;2023-04-25T08:45:07;17.65;;;3.38;;
13985;SDS011;7067;51.832;8.296;2023-04-25T08:47:33;16.45;;;3.40;;
13985;SDS011;7067;51.832;8.296;2023-04-25T08:49:59;7.97;;;2.33;;
13985;SDS011;7067;51.832;8.296;2023-04-25T08:52:26;10.32;;;2.85;;
13985;SDS011;7067;51.832;8.296;2023-04-25T08:54:53;14.48;;;3.20;;
13985;SDS011;7067;51.832;8.296;2023-04-25T08:57:20;9.95;;;2.60;;
13985;SDS011;7067;51.832;8.296;2023-04-25T08:59:46;10.13;;;3.17;;
13985;SDS011;7067;51.832;8.296;2023-04-25T09:02:12;13.93;;;3.00;;
13985;SDS011;7067;51.832;8.296;2023-04-25T09:04:43;12.98;;;3.17;;
13985;SDS011;7067;51.832;8.296;2023-04-25T09:07:08;8.43;;;2.47;;
13985;SDS011;7067;51.832;8.296;2023-04-25T09:09:34;9.38;;;2.22;;
13985;SDS011;7067;51.832;8.296;2023-04-25T09:11:59;6.20;;;2.75;;
13985;SDS011;7067;51.832;8.296;2023-04-25T09:14:26;7.50;;;2.47;;
13985;SDS011;7067;51.832;8.296;2023-04-25T09:17:02;7.10;;;2.58;;
13985;SDS011;7067;51.832;8.296;2023-04-25T09:19:30;12.48;;;2.85;;
13985;SDS011;7067;51.832;8.296;2023-04-25T09:21:58;11.35;;;2.47;;
13985;SDS011;7067;51.832;8.296;2023-04-25T09:24:30;10.10;;;2.42;;
13985;SDS011;7067;51.832;8.296;2023-04-25T09:26:56;8.43;;;2.45;;
13985;SDS011;7067;51.832;8.296;2023-04-25T09:29:28;9.38;;;3.45;;
13985;SDS011;7067;51.832;8.296;2023-04-25T09:32:11;10.10;;;2.63;;
13985;SDS011;7067;51.832;8.296;2023-04-25T09:34:40;12.20;;;2.45;;
13985;SDS011;7067;51.832;8.296;2023-04-25T09:37:07;8.10;;;2.47;;
13985;SDS011;7067;51.832;8.296;2023-04-25T09:39:36;13.48;;;2.40;;
13985;SDS011;7067;51.832;8.296;2023-04-25T09:42:02;7.75;;;2.05;;
13985;SDS011;7067;51.832;8.296;2023-04-25T09:44:28;9.68;;;2.28;;
13985;SDS011;7067;51.832;8.296;2023-04-25T09:46:54;6.25;;;2.13;;
13985;SDS011;7067;51.832;8.296;2023-04-25T09:49:19;9.85;;;2.22;;
13985;SDS011;7067;51.832;8.296;2023-04-25T09:51:58;8.23;;;2.03;;
13985;SDS011;7067;51.832;8.296;2023-04-25T09:54:24;6.25;;;2.85;;
13985;SDS011;7067;51.832;8.296;2023-04-25T09:56:51;9.18;;;2.53;;
13985;SDS011;7067;51.832;8.296;2023-04-25T09:59:20;6.75;;;1.60;;
13985;SDS011;7067;51.832;8.296;2023-04-25T10:01:47;6.57;;;1.92;;
13985;SDS011;7067;51.832;8.296;2023-04-25T10:04:15;6.15;;;2.50;;
13985;SDS011;7067;51.832;8.296;2023-04-25T10:06:48;6.82;;;4.13;;
13985;SDS011;7067;51.832;8.296;2023-04-25T10:09:15;9.05;;;2.47;;
13985;SDS011;7067;51.832;8.296;2023-04-25T10:11:42;6.15;;;1.90;;
13985;SDS011;7067;51.832;8.296;2023-04-25T10:14:09;11.45;;;1.95;;
13985;SDS011;7067;51.832;8.296;2023-04-25T10:16:36;5.13;;;1.95;;
13985;SDS011;7067;51.832;8.296;2023-04-25T10:19:02;10.35;;;2.00;;
13985;SDS011;7067;51.832;8.296;2023-04-25T10:21:27;7.00;;;2.10;;
13985;SDS011;7067;51.832;8.296;2023-04-25T10:23:55;4.22;;;1.88;;
13985;SDS011;7067;51.832;8.296;2023-04-25T10:26:21;6.70;;;1.73;;
13985;SDS011;7067;51.832;8.296;2023-04-25T10:28:59;6.20;;;2.10;;
13985;SDS011;7067;51.832;8.296;2023-04-25T10:31:26;10.00;;;2.08;;
13985;SDS011;7067;51.832;8.296;2023-04-25T10:33:52;7.43;;;2.08;;
13985;SDS011;7067;51.832;8.296;2023-04-25T10:36:19;5.28;;;1.50;;
13985;SDS011;7067;51.832;8.296;2023-04-25T10:38:49;6.75;;;1.67;;
13985;SDS011;7067;51.832;8.296;2023-04-25T10:41:19;7.13;;;1.88;;
13985;SDS011;7067;51.832;8.296;2023-04-25T10:43:48;57.15;;;4.85;;
13985;SDS011;7067;51.832;8.296;2023-04-25T10:49:01;5.50;;;1.90;;
13985;SDS011;7067;51.832;8.296;2023-04-25T11:01:48;10.38;;;2.03;;
13985;SDS011;7067;51.832;8.296;2023-04-25T11:04:19;6.60;;;1.63;;
13985;SDS011;7067;51.832;8.296;2023-04-25T11:09:16;6.20;;;1.60;;
13985;SDS011;7067;51.832;8.296;2023-04-25T11:11:42;5.00;;;1.45;;
13985;SDS011;7067;51.832;8.296;2023-04-25T11:14:07;7.85;;;1.83;;
13985;SDS011;7067;51.832;8.296;2023-04-25T11:16:33;5.03;;;1.25;;
13985;SDS011;7067;51.832;8.296;2023-04-25T11:18:58;6.03;;;1.65;;
13985;SDS011;7067;51.832;8.296;2023-04-25T11:21:27;5.75;;;1.60;;
13985;SDS011;7067;51.832;8.296;2023-04-25T11:23:56;7.22;;;1.55;;
13985;SDS011;7067;51.832;8.296;2023-04-25T11:26:22;5.30;;;1.48;;
13985;SDS011;7067;51.832;8.296;2023-04-25T11:28:48;4.85;;;1.70;;
13985;SDS011;7067;51.832;8.296;2023-04-25T11:31:14;4.68;;;1.73;;
13985;SDS011;7067;51.832;8.296;2023-04-25T11:33:39;7.30;;;1.65;;
13985;SDS011;7067;51.832;8.296;2023-04-25T11:36:05;8.43;;;1.67;;
13985;SDS011;7067;51.832;8.296;2023-04-25T11:38:31;4.03;;;1.52;;
13985;SDS011;7067;51.832;8.296;2023-04-25T11:40:56;5.13;;;1.83;;
13985;SDS011;7067;51.832;8.296;2023-04-25T11:43:22;4.82;;;2.10;;
13985;SDS011;7067;51.832;8.296;2023-04-25T11:45:48;8.10;;;1.67;;
13985;SDS011;7067;51.832;8.296;2023-04-25T11:48:14;7.80;;;1.52;;
13985;SDS011;7067;51.832;8.296;2023-04-25T11:50:39;4.43;;;1.30;;
13985;SDS011;7067;51.832;8.296;2023-04-25T11:53:05;5.38;;;1.50;;
13985;SDS011;7067;51.832;8.296;2023-04-25T11:55:31;8.45;;;1.98;;
13985;SDS011;7067;51.832;8.296;2023-04-25T11:57:59;4.78;;;1.63;;
13985;SDS011;7067;51.832;8.296;2023-04-25T12:00:25;6.85;;;1.83;;
13985;SDS011;7067;51.832;8.296;2023-04-25T12:02:54;9.18;;;1.95;;
13985;SDS011;7067;51.832;8.296;2023-04-25T12:05:23;4.80;;;1.50;;
13985;SDS011;7067;51.832;8.296;2023-04-25T12:10:16;6.82;;;1.90;;
13985;SDS011;7067;51.832;8.296;2023-04-25T12:12:43;5.25;;;1.70;;
13985;SDS011;7067;51.832;8.296;2023-04-25T12:17:45;5.75;;;1.60;;
13985;SDS011;7067;51.832;8.296;2023-04-25T12:20:13;2.90;;;1.13;;
13985;SDS011;7067;51.832;8.296;2023-04-25T12:22:44;6.22;;;1.60;;
13985;SDS011;7067;51.832;8.296;2023-04-25T12:25:13;6.30;;;1.98;;
13985;SDS011;7067;51.832;8.296;2023-04-25T12:27:42;7.72;;;1.73;;
13985;SDS011;7067;51.832;8.296;2023-04-25T12:30:09;4.75;;;1.58;;
13985;SDS011;7067;51.832;8.296;2023-04-25T12:32:35;8.32;;;1.70;;
13985;SDS011;7067;51.832;8.296;2023-04-25T12:35:01;7.60;;;3.30;;
13985;SDS011;7067;51.832;8.296;2023-04-25T12:37:28;6.05;;;1.80;;
13985;SDS011;7067;51.832;8.296;2023-04-25T12:39:53;2.78;;;1.33;;
13985;SDS011;7067;51.832;8.296;2023-04-25T12:42:19;5.10;;;1.70;;
13985;SDS011;7067;51.832;8.296;2023-04-25T12:44:44;7.68;;;1.50;;
13985;SDS011;7067;51.832;8.296;2023-04-25T12:47:10;9.25;;;1.60;;
13985;SDS011;7067;51.832;8.296;2023-04-25T12:49:35;7.30;;;1.48;;
13985;SDS011;7067;51.832;8.296;2023-04-25T12:52:00;4.20;;;1.63;;
13985;SDS011;7067;51.832;8.296;2023-04-25T12:54:26;7.38;;;1.58;;
13985;SDS011;7067;51.832;8.296;2023-04-25T12:56:51;5.85;;;1.35;;
13985;SDS011;7067;51.832;8.296;2023-04-25T12:59:17;3.22;;;1.05;;
13985;SDS011;7067;51.832;8.296;2023-04-25T13:01:43;4.78;;;1.17;;
13985;SDS011;7067;51.832;8.296;2023-04-25T13:04:10;6.30;;;1.50;;
13985;SDS011;7067;51.832;8.296;2023-04-25T13:06:35;5.40;;;0.85;;
13985;SDS011;7067;51.832;8.296;2023-04-25T13:09:01;4.47;;;1.25;;
13985;SDS011;7067;51.832;8.296;2023-04-25T13:11:26;6.22;;;1.55;;
13985;SDS011;7067;51.832;8.296;2023-04-25T13:13:52;3.53;;;1.20;;
13985;SDS011;7067;51.832;8.296;2023-04-25T13:16:17;3.33;;;1.10;;
13985;SDS011;7067;51.832;8.296;2023-04-25T13:18:45;4.82;;;1.60;;
13985;SDS011;7067;51.832;8.296;2023-04-25T13:21:10;4.07;;;1.17;;
13985;SDS011;7067;51.832;8.296;2023-04-25T13:23:36;6.05;;;1.10;;
13985;SDS011;7067;51.832;8.296;2023-04-25T13:26:01;4.20;;;0.98;;
13985;SDS011;7067;51.832;8.296;2023-04-25T13:28:27;2.38;;;1.00;;
13985;SDS011;7067;51.832;8.296;2023-04-25T13:30:53;2.08;;;0.70;;
13985;SDS011;7067;51.832;8.296;2023-04-25T13:33:19;1.65;;;1.02;;
13985;SDS011;7067;51.832;8.296;2023-04-25T13:35:45;3.40;;;0.98;;
13985;SDS011;7067;51.832;8.296;2023-04-25T13:38:21;2.17;;;0.70;;
13985;SDS011;7067;51.832;8.296;2023-04-25T13:40:48;35.22;;;3.90;;
13985;SDS011;7067;51.832;8.296;2023-04-25T13:43:14;1.75;;;0.73;;
13985;SDS011;7067;51.832;8.296;2023-04-25T13:45:39;3.67;;;1.08;;
13985;SDS011;7067;51.832;8.296;2023-04-25T13:48:05;1.80;;;0.93;;
13985;SDS011;7067;51.832;8.296;2023-04-25T13:50:31;4.32;;;0.75;;
13985;SDS011;7067;51.832;8.296;2023-04-25T13:52:56;2.83;;;1.00;;
13985;SDS011;7067;51.832;8.296;2023-04-25T13:55:22;3.47;;;1.13;;
13985;SDS011;7067;51.832;8.296;2023-04-25T13:57:47;4.63;;;1.25;;
13985;SDS011;7067;51.832;8.296;2023-04-25T14:00:12;5.70;;;1.00;;
13985;SDS011;7067;51.832;8.296;2023-04-25T14:02:38;5.63;;;1.48;;
13985;SDS011;7067;51.832;8.296;2023-04-25T14:05:04;8.30;;;4.22;;
13985;SDS011;7067;51.832;8.296;2023-04-25T14:07:30;8.98;;;1.75;;
13985;SDS011;7067;51.832;8.296;2023-04-25T14:09:56;3.72;;;1.42;;
13985;SDS011;7067;51.832;8.296;2023-04-25T14:12:22;6.13;;;1.38;;
13985;SDS011;7067;51.832;8.296;2023-04-25T14:14:48;6.93;;;1.52;;
13985;SDS011;7067;51.832;8.296;2023-04-25T14:17:13;5.00;;;1.65;;
13985;SDS011;7067;51.832;8.296;2023-04-25T14:19:38;5.47;;;1.63;;
13985;SDS011;7067;51.832;8.296;2023-04-25T14:22:08;5.75;;;1.58;;
13985;SDS011;7067;51.832;8.296;2023-04-25T14:24:33;3.85;;;1.50;;
13985;SDS011;7067;51.832;8.296;2023-04-25T14:26:58;7.68;;;1.50;;
13985;SDS011;7067;51.832;8.296;2023-04-25T14:29:24;5.50;;;1.67;;
13985;SDS011;7067;51.832;8.296;2023-04-25T14:31:49;3.85;;;1.77;;
13985;SDS011;7067;51.832;8.296;2023-04-25T14:34:15;6.53;;;2.40;;
13985;SDS011;7067;51.832;8.296;2023-04-25T14:36:40;6.18;;;2.03;;
13985;SDS011;7067;51.832;8.296;2023-04-25T14:39:05;5.13;;;1.63;;
13985;SDS011;7067;51.832;8.296;2023-04-25T14:41:31;4.07;;;1.30;;
13985;SDS011;7067;51.832;8.296;2023-04-25T14:43:56;4.82;;;1.55;;
13985;SDS011;7067;51.832;8.296;2023-04-25T14:46:22;4.32;;;1.55;;
13985;SDS011;7067;51.832;8.296;2023-04-25T14:48:48;2.42;;;1.70;;
13985;SDS011;7067;51.832;8.296;2023-04-25T14:51:13;5.80;;;1.77;;
13985;SDS011;7067;51.832;8.296;2023-04-25T14:53:39;2.95;;;1.90;;
13985;SDS011;7067;51.832;8.296;2023-04-25T14:56:05;4.13;;;1.65;;
13985;SDS011;7067;51.832;8.296;2023-04-25T14:58:32;4.47;;;1.40;;
13985;SDS011;7067;51.832;8.296;2023-04-25T15:00:57;8.15;;;2.80;;
13985;SDS011;7067;51.832;8.296;2023-04-25T15:03:23;5.82;;;2.92;;